Airport View

Enter AWOS ICAO identifier for current METAR.

ex. KFNL

KBAN 210052Z AUTO VRB04KT 10SM BKN070 14/M03 A3007 RMK AO2 SLP151 T01391028 $

21 Sep 2019 01:18

Other Area AWOS: KTVL - KMEV - KHTH - KO22

TAF KTVL 202320Z 2100/2124 VRB03KT P6SM SKC FM212000 03006KT P6SM SKC